Amador City, California
Current Conditions -  °F | °C
As of 1:35 PM on Thursday 23 Oct 2014 (Local Time) from KPVF Reporting Station
Clear Clear  
Wind Chill: 20°   Ceiling: Unl
Heat Index: 20°   Visibility: 10mi
Dew Point:   Wind: 0mph
Humidity: 35%   Direction: NA
Pressure: 30.1"   Gusts: NA
Location:  38.42°N, 120.82°W
Report Text: KPVF 232035Z AUTO 00000KT 10SM CLR 20/04 A3010 RMK AO1
Loading
Personal Weather Stations






























Interactive Weather Map New forecast layout! Learn more

10-Day Weather Forecast

Advertisements
Track Severe Weather on mobile